createdAt,value
2023-01-06T00:00:05.676Z,502.00
2023-01-06T00:01:05.632Z,513.00
2023-01-06T00:02:05.616Z,506.00
2023-01-06T00:03:05.564Z,512.00
2023-01-06T00:04:05.537Z,515.00
2023-01-06T00:05:05.517Z,511.00
2023-01-06T00:06:05.598Z,510.00
2023-01-06T00:07:05.449Z,511.00
2023-01-06T01:36:45.536Z,511.00
2023-01-06T01:37:45.491Z,506.00
2023-01-06T01:38:45.456Z,510.00
2023-01-06T01:39:45.435Z,505.00
2023-01-06T01:40:45.400Z,501.00
2023-01-06T01:41:45.369Z,509.00
2023-01-06T01:42:45.338Z,509.00
2023-01-06T01:43:45.428Z,504.00
2023-01-06T01:44:45.292Z,502.00
2023-01-06T01:45:45.258Z,504.00
2023-01-06T01:46:45.223Z,501.00
2023-01-06T01:47:45.198Z,507.00
2023-01-06T01:48:45.180Z,504.00
2023-01-06T01:49:45.139Z,503.00
2023-01-06T01:50:45.108Z,507.00
2023-01-06T01:51:45.078Z,504.00
2023-01-06T01:52:45.057Z,511.00
2023-01-06T01:53:45.020Z,503.00
2023-01-06T01:54:44.973Z,501.00
2023-01-06T01:55:44.936Z,509.00
2023-01-06T01:56:44.901Z,503.00
2023-01-06T01:57:44.857Z,507.00
2023-01-06T02:00:44.751Z,508.00
2023-01-06T03:22:42.130Z,525.00
2023-01-06T03:47:41.292Z,519.00
2023-01-06T05:21:37.844Z,528.00
2023-01-06T05:23:37.764Z,531.00
2023-01-06T05:24:37.731Z,521.00
2023-01-06T05:25:37.700Z,525.00
2023-01-06T05:26:37.669Z,528.00
2023-01-06T05:27:37.750Z,526.00
2023-01-06T05:29:37.563Z,533.00
2023-01-06T05:30:37.524Z,525.00
2023-01-06T05:31:37.550Z,532.00
2023-01-06T05:32:37.455Z,527.00
2023-01-06T05:33:37.421Z,527.00
2023-01-06T05:34:37.403Z,530.00
2023-01-06T05:35:37.362Z,533.00
2023-01-06T05:36:37.319Z,526.00
2023-01-06T05:37:37.294Z,531.00
2023-01-06T05:38:37.260Z,523.00
2023-01-06T05:39:37.239Z,525.00
2023-01-06T05:40:37.184Z,521.00
2023-01-06T05:41:37.155Z,525.00
2023-01-06T05:42:37.129Z,518.00
2023-01-06T05:43:37.202Z,523.00
2023-01-06T05:44:37.045Z,518.00
2023-01-06T05:45:37.126Z,522.00
2023-01-06T05:46:36.987Z,526.00
2023-01-06T05:47:36.948Z,523.00
2023-01-06T05:48:36.939Z,525.00
2023-01-06T05:49:36.869Z,525.00
2023-01-06T05:50:36.838Z,528.00
2023-01-06T05:51:36.817Z,529.00
2023-01-06T05:52:36.771Z,521.00
2023-01-06T05:53:36.781Z,523.00
2023-01-06T05:54:36.704Z,522.00
2023-01-06T05:55:36.669Z,526.00
2023-01-06T05:56:36.635Z,521.00
2023-01-06T05:57:36.614Z,525.00
2023-01-06T05:58:36.573Z,521.00
2023-01-06T05:59:36.716Z,537.00
2023-01-06T06:00:36.517Z,537.00
2023-01-06T06:01:36.517Z,520.00
2023-01-06T06:02:36.459Z,528.00
2023-01-06T06:03:36.481Z,527.00
2023-01-06T06:04:36.398Z,526.00
2023-01-06T06:05:36.342Z,521.00
2023-01-06T06:06:36.328Z,524.00
2023-01-06T06:07:36.285Z,527.00
2023-01-06T06:08:36.250Z,532.00
2023-01-06T06:09:36.223Z,533.00
2023-01-06T06:10:36.180Z,531.00
2023-01-06T06:11:36.148Z,524.00
2023-01-06T06:12:36.114Z,532.00
2023-01-06T06:13:36.076Z,528.00
2023-01-06T06:14:36.039Z,531.00
2023-01-06T06:15:36.127Z,533.00
2023-01-06T06:16:36.049Z,530.00
2023-01-06T06:17:35.956Z,527.00
2023-01-06T06:18:35.914Z,528.00
2023-01-06T06:19:35.879Z,525.00
2023-01-06T06:20:35.861Z,526.00
2023-01-06T06:21:35.821Z,522.00
2023-01-06T06:22:35.787Z,522.00
2023-01-06T06:23:35.753Z,527.00
2023-01-06T06:24:35.721Z,518.00
2023-01-06T06:25:35.700Z,522.00
2023-01-06T06:26:35.655Z,527.00
2023-01-06T06:27:35.618Z,524.00
2023-01-06T06:28:35.582Z,532.00
2023-01-06T06:29:35.541Z,526.00
2023-01-06T06:30:35.542Z,523.00
2023-01-06T06:31:35.613Z,531.00
2023-01-06T06:32:35.429Z,519.00
2023-01-06T06:33:35.392Z,525.00
2023-01-06T06:34:35.366Z,529.00
2023-01-06T06:35:35.320Z,531.00
2023-01-06T06:36:35.291Z,526.00
2023-01-06T06:37:35.249Z,523.00
2023-01-06T06:38:35.214Z,527.00
2023-01-06T06:39:35.185Z,528.00
2023-01-06T06:40:35.144Z,532.00
2023-01-06T06:41:35.105Z,530.00
2023-01-06T06:42:35.077Z,531.00
2023-01-06T06:43:35.035Z,531.00
2023-01-06T06:44:35.008Z,520.00
2023-01-06T06:45:35.007Z,514.00
2023-01-06T06:46:34.932Z,524.00
2023-01-06T06:47:35.020Z,530.00
2023-01-06T06:48:34.849Z,523.00
2023-01-06T06:49:35.667Z,521.00
2023-01-06T06:50:34.783Z,522.00
2023-01-06T07:01:34.490Z,519.00
2023-01-06T07:05:34.223Z,519.00
2023-01-06T07:08:34.119Z,523.00
2023-01-06T07:09:34.075Z,523.00
2023-01-06T07:10:34.042Z,521.00
2023-01-06T07:11:34.018Z,520.00
2023-01-06T07:12:33.967Z,523.00
2023-01-06T07:13:33.946Z,526.00
2023-01-06T07:14:33.898Z,526.00
2023-01-06T07:15:33.921Z,527.00
2023-01-06T07:16:33.824Z,527.00
2023-01-06T07:17:33.782Z,527.00
2023-01-06T07:18:33.755Z,530.00
2023-01-06T07:19:33.826Z,522.00
2023-01-06T07:20:33.676Z,529.00
2023-01-06T07:21:33.642Z,526.00
2023-01-06T07:22:33.618Z,527.00
2023-01-06T07:23:33.597Z,526.00
2023-01-06T07:24:33.536Z,530.00
2023-01-06T07:25:33.504Z,526.00
2023-01-06T07:26:33.465Z,530.00
2023-01-06T07:27:33.429Z,527.00
2023-01-06T07:28:33.398Z,529.00
2023-01-06T07:29:33.355Z,530.00
2023-01-06T07:30:33.320Z,531.00
2023-01-06T07:31:33.303Z,530.00
2023-01-06T07:32:33.237Z,532.00
2023-01-06T07:33:33.200Z,528.00
2023-01-06T07:34:33.166Z,528.00
2023-01-06T07:35:33.262Z,532.00
2023-01-06T07:36:33.088Z,530.00
2023-01-06T07:37:33.039Z,536.00
2023-01-06T07:38:32.993Z,528.00
2023-01-06T07:39:32.959Z,532.00
2023-01-06T07:40:32.914Z,526.00
2023-01-06T07:41:32.878Z,525.00
2023-01-06T07:42:32.833Z,527.00
2023-01-06T07:43:32.795Z,521.00
2023-01-06T07:44:32.756Z,527.00
2023-01-06T07:45:32.712Z,526.00
2023-01-06T07:46:32.750Z,530.00
2023-01-06T07:47:32.636Z,530.00
2023-01-06T07:48:32.596Z,533.00
2023-01-06T07:49:32.562Z,531.00
2023-01-06T07:50:32.523Z,529.00
2023-01-06T07:51:32.609Z,524.00
2023-01-06T07:52:32.456Z,527.00
2023-01-06T07:53:32.414Z,524.00
2023-01-06T07:54:32.361Z,533.00
2023-01-06T07:55:32.325Z,528.00
2023-01-06T07:56:32.275Z,524.00
2023-01-06T07:57:32.259Z,530.00
2023-01-06T07:58:32.228Z,522.00
2023-01-06T07:59:32.180Z,521.00
2023-01-06T08:00:32.130Z,524.00
2023-01-06T08:01:32.147Z,527.00
2023-01-06T08:02:32.216Z,520.00
2023-01-06T08:03:32.009Z,513.00
2023-01-06T08:04:31.972Z,517.00
2023-01-06T08:05:31.942Z,521.00
2023-01-06T08:06:31.901Z,521.00
2023-01-06T08:07:31.981Z,521.00
2023-01-06T08:08:31.828Z,525.00
2023-01-06T08:09:31.774Z,526.00
2023-01-06T08:10:31.726Z,523.00
2023-01-06T08:11:31.697Z,526.00
2023-01-06T08:12:31.669Z,526.00
2023-01-06T08:13:31.619Z,520.00
2023-01-06T08:14:31.575Z,522.00
2023-01-06T08:15:31.543Z,526.00
2023-01-06T08:16:31.507Z,519.00
2023-01-06T08:17:31.466Z,521.00
2023-01-06T08:18:31.426Z,514.00
2023-01-06T08:19:31.399Z,523.00
2023-01-06T08:20:31.350Z,523.00
2023-01-06T08:21:31.305Z,521.00
2023-01-06T08:22:31.259Z,522.00
2023-01-06T08:23:31.344Z,529.00
2023-01-06T08:24:32.617Z,526.00
2023-01-06T08:25:31.193Z,541.00
2023-01-06T08:26:31.159Z,535.00
2023-01-06T08:27:31.112Z,524.00
2023-01-06T08:28:31.071Z,530.00
2023-01-06T08:29:31.036Z,535.00
2023-01-06T08:30:30.992Z,524.00
2023-01-06T08:31:31.024Z,527.00
2023-01-06T08:32:30.900Z,530.00
2023-01-06T08:33:30.857Z,528.00
2023-01-06T08:34:30.827Z,530.00
2023-01-06T08:35:30.775Z,521.00
2023-01-06T08:36:30.727Z,527.00
2023-01-06T08:37:30.685Z,527.00
2023-01-06T08:38:30.639Z,523.00
2023-01-06T08:39:30.722Z,526.00
2023-01-06T08:40:30.555Z,529.00
2023-01-06T08:41:30.514Z,521.00
2023-01-06T08:42:30.470Z,527.00
2023-01-06T08:43:30.427Z,517.00
2023-01-06T08:44:30.373Z,516.00
2023-01-06T08:45:30.341Z,516.00
2023-01-06T08:46:30.447Z,517.00
2023-01-06T08:47:30.255Z,510.00
2023-01-06T08:48:30.259Z,510.00
2023-01-06T08:49:30.184Z,518.00
2023-01-06T08:50:30.161Z,521.00
2023-01-06T08:51:30.102Z,519.00
2023-01-06T08:52:30.062Z,505.00
2023-01-06T08:53:30.071Z,509.00
2023-01-06T08:54:29.978Z,517.00
2023-01-06T08:55:30.061Z,517.00
2023-01-06T08:56:29.895Z,515.00
2023-01-06T08:57:29.855Z,514.00
2023-01-06T08:58:29.811Z,523.00
2023-01-06T08:59:29.762Z,523.00
2023-01-06T09:00:29.727Z,517.00
2023-01-06T09:01:29.806Z,513.00
2023-01-06T09:02:29.703Z,520.00
2023-01-06T09:03:29.604Z,516.00
2023-01-06T09:04:29.564Z,519.00
2023-01-06T09:05:29.522Z,514.00
2023-01-06T09:06:29.476Z,522.00
2023-01-06T09:07:29.436Z,527.00
2023-01-06T09:08:29.394Z,518.00
2023-01-06T09:09:29.354Z,525.00
2023-01-06T09:10:29.311Z,531.00
2023-01-06T09:11:29.397Z,529.00
2023-01-06T09:12:29.229Z,529.00
2023-01-06T09:13:29.197Z,532.00
2023-01-06T09:14:29.162Z,530.00
2023-01-06T09:15:29.126Z,526.00
2023-01-06T09:16:29.093Z,525.00
2023-01-06T09:17:29.064Z,532.00
2023-01-06T09:18:29.045Z,535.00
2023-01-06T09:19:28.977Z,530.00
2023-01-06T09:20:28.944Z,528.00
2023-01-06T09:21:28.899Z,514.00
2023-01-06T09:22:28.875Z,524.00
2023-01-06T09:23:28.863Z,520.00
2023-01-06T09:24:28.788Z,519.00
2023-01-06T09:25:28.766Z,525.00
2023-01-06T09:26:28.714Z,524.00
2023-01-06T09:27:28.804Z,515.00
2023-01-06T09:28:28.678Z,527.00
2023-01-06T09:29:28.603Z,523.00
2023-01-06T09:30:28.571Z,524.00
2023-01-06T09:31:28.559Z,523.00
2023-01-06T09:32:28.494Z,527.00
2023-01-06T09:33:28.456Z,526.00
2023-01-06T09:34:28.425Z,520.00
2023-01-06T09:35:28.386Z,521.00
2023-01-06T09:36:28.364Z,522.00
2023-01-06T09:37:28.311Z,528.00
2023-01-06T09:38:28.270Z,520.00
2023-01-06T09:39:28.259Z,519.00
2023-01-06T09:40:28.204Z,517.00
2023-01-06T09:41:28.169Z,523.00
2023-01-06T09:42:28.132Z,515.00
2023-01-06T09:43:28.220Z,522.00
2023-01-06T09:44:28.077Z,518.00
2023-01-06T09:45:28.037Z,518.00
2023-01-06T09:46:28.013Z,523.00
2023-01-06T09:47:27.967Z,521.00
2023-01-06T09:48:27.929Z,518.00
2023-01-06T09:49:27.925Z,516.00
2023-01-06T09:50:27.851Z,521.00
2023-01-06T09:51:27.817Z,525.00
2023-01-06T09:52:27.780Z,516.00
2023-01-06T09:53:27.750Z,517.00
2023-01-06T09:54:27.722Z,520.00
2023-01-06T09:55:27.672Z,517.00
2023-01-06T09:56:27.659Z,519.00
2023-01-06T09:57:27.605Z,513.00
2023-01-06T09:58:27.569Z,515.00
2023-01-06T09:59:27.658Z,517.00
2023-01-06T10:00:27.505Z,518.00
2023-01-06T10:01:27.603Z,514.00
2023-01-06T10:02:27.517Z,516.00
2023-01-06T10:03:27.425Z,523.00
2023-01-06T10:04:27.364Z,516.00
2023-01-06T10:05:27.337Z,517.00
2023-01-06T10:06:27.471Z,512.00
2023-01-06T10:07:27.273Z,517.00
2023-01-06T10:08:27.236Z,511.00
2023-01-06T10:09:27.201Z,504.00
2023-01-06T10:10:27.159Z,510.00
2023-01-06T10:11:27.141Z,515.00
2023-01-06T10:12:27.091Z,513.00
2023-01-06T10:13:27.060Z,511.00
2023-01-06T10:14:27.026Z,513.00
2023-01-06T10:15:28.478Z,514.00
2023-01-06T10:16:27.121Z,508.00
2023-01-06T10:17:27.003Z,508.00
2023-01-06T10:18:26.968Z,517.00
2023-01-06T10:19:26.931Z,509.00
2023-01-06T10:20:26.903Z,509.00
2023-01-06T10:21:26.855Z,511.00
2023-01-06T10:22:26.824Z,519.00
2023-01-06T10:23:26.787Z,507.00
2023-01-06T10:24:26.761Z,513.00
2023-01-06T10:25:26.716Z,510.00
2023-01-06T10:26:26.678Z,514.00
2023-01-06T10:27:26.664Z,511.00
2023-01-06T10:28:26.599Z,510.00
2023-01-06T10:29:26.568Z,508.00
2023-01-06T10:30:30.535Z,510.00
2023-01-06T10:31:26.650Z,510.00
2023-01-06T10:32:26.447Z,511.00
2023-01-06T10:34:25.388Z,512.00
2023-01-06T10:35:26.336Z,518.00
2023-01-06T10:36:29.080Z,512.00
2023-01-06T10:37:26.260Z,512.00
2023-01-06T10:38:26.220Z,513.00
2023-01-06T10:39:26.188Z,514.00
2023-01-06T10:40:26.151Z,516.00
2023-01-06T10:41:26.115Z,517.00
2023-01-06T10:42:26.079Z,516.00
2023-01-06T10:43:26.053Z,516.00
2023-01-06T10:44:26.007Z,514.00
2023-01-06T10:45:25.980Z,517.00
2023-01-06T10:46:25.942Z,519.00
2023-01-06T10:47:26.029Z,514.00
2023-01-06T10:48:25.857Z,512.00
2023-01-06T10:49:25.807Z,507.00
2023-01-06T10:50:25.769Z,512.00
2023-01-06T10:51:25.725Z,509.00
2023-01-06T10:52:25.675Z,510.00
2023-01-06T10:53:25.641Z,510.00
2023-01-06T10:54:25.595Z,513.00
2023-01-06T10:55:25.573Z,513.00
2023-01-06T10:56:25.520Z,517.00
2023-01-06T10:57:25.484Z,514.00
2023-01-06T10:58:25.451Z,510.00
2023-01-06T10:59:25.405Z,509.00
2023-01-06T11:00:25.398Z,505.00
2023-01-06T11:01:25.545Z,514.00
2023-01-06T11:02:25.407Z,510.00
2023-01-06T11:03:33.144Z,505.00
2023-01-06T11:04:25.216Z,506.00
2023-01-06T11:05:25.176Z,508.00
2023-01-06T11:06:25.137Z,508.00
2023-01-06T11:07:25.145Z,512.00
2023-01-06T11:08:25.040Z,514.00
2023-01-06T11:09:24.999Z,518.00
2023-01-06T11:10:24.956Z,506.00
2023-01-06T11:11:29.085Z,511.00
2023-01-06T11:12:24.879Z,511.00
2023-01-06T11:13:24.847Z,512.00
2023-01-06T11:14:24.822Z,514.00
2023-01-06T11:15:24.775Z,512.00
2023-01-06T11:16:24.828Z,514.00
2023-01-06T11:17:24.712Z,517.00
2023-01-06T11:18:24.666Z,515.00
2023-01-06T11:19:24.737Z,514.00
2023-01-06T11:20:24.583Z,513.00
2023-01-06T11:21:24.533Z,509.00
2023-01-06T11:22:24.493Z,515.00
2023-01-06T11:23:24.455Z,509.00
2023-01-06T11:24:24.415Z,511.00
2023-01-06T11:25:24.414Z,504.00
2023-01-06T11:26:24.340Z,516.00
2023-01-06T11:27:24.313Z,510.00
2023-01-06T11:28:24.262Z,507.00
2023-01-06T11:29:24.223Z,507.00
2023-01-06T11:30:24.183Z,508.00
2023-01-06T11:31:24.153Z,508.00
2023-01-06T11:32:24.105Z,511.00
2023-01-06T11:33:24.122Z,511.00
2023-01-06T11:34:24.028Z,505.00
2023-01-06T11:35:24.213Z,509.00
2023-01-06T11:36:23.945Z,505.00
2023-01-06T11:37:23.908Z,507.00
2023-01-06T11:38:23.869Z,509.00
2023-01-06T11:39:23.845Z,505.00
2023-01-06T11:40:23.803Z,518.00
2023-01-06T11:41:23.767Z,513.00
2023-01-06T11:42:23.723Z,515.00
2023-01-06T11:43:23.691Z,510.00
2023-01-06T11:44:23.644Z,504.00
2023-01-06T11:45:23.605Z,506.00
2023-01-06T11:46:23.578Z,508.00
2023-01-06T11:47:23.538Z,516.00
2023-01-06T11:48:23.501Z,514.00
2023-01-06T11:49:23.455Z,510.00
2023-01-06T11:50:23.412Z,519.00
2023-01-06T11:51:23.490Z,511.00
2023-01-06T11:52:23.339Z,509.00
2023-01-06T11:53:23.299Z,513.00
2023-01-06T11:54:23.252Z,511.00
2023-01-06T11:55:23.216Z,514.00
2023-01-06T11:56:23.209Z,512.00
2023-01-06T11:57:23.143Z,521.00
2023-01-06T11:58:23.099Z,517.00
2023-01-06T11:59:23.065Z,510.00
2023-01-06T12:00:23.023Z,512.00
2023-01-06T12:01:23.040Z,513.00
2023-01-06T12:02:23.077Z,511.00
2023-01-06T12:03:23.001Z,512.00
2023-01-06T12:04:22.895Z,512.00
2023-01-06T12:05:22.855Z,509.00
2023-01-06T12:06:22.831Z,507.00
2023-01-06T12:07:22.910Z,506.00
2023-01-06T12:08:22.747Z,507.00
2023-01-06T12:09:22.705Z,507.00
2023-01-06T12:10:22.719Z,513.00
2023-01-06T12:11:22.655Z,510.00
2023-01-06T12:12:22.584Z,509.00
2023-01-06T12:13:22.555Z,509.00
2023-01-06T12:14:28.960Z,510.00
2023-01-06T12:15:22.481Z,510.00
2023-01-06T12:16:22.611Z,511.00
2023-01-06T12:17:22.597Z,514.00
2023-01-06T12:18:22.372Z,511.00
2023-01-06T12:19:22.324Z,517.00
2023-01-06T12:20:22.297Z,516.00
2023-01-06T12:21:22.243Z,510.00
2023-01-06T12:22:22.211Z,510.00
2023-01-06T12:23:22.287Z,510.00
2023-01-06T12:24:22.122Z,514.00
2023-01-06T12:25:22.099Z,516.00
2023-01-06T12:26:22.043Z,517.00
2023-01-06T12:27:22.010Z,512.00
2023-01-06T12:28:21.956Z,509.00
2023-01-06T12:29:21.918Z,512.00
2023-01-06T12:30:21.892Z,508.00
2023-01-06T12:31:21.848Z,512.00
2023-01-06T12:32:21.811Z,510.00
2023-01-06T12:33:21.761Z,505.00
2023-01-06T12:34:21.730Z,517.00
2023-01-06T12:35:21.688Z,512.00
2023-01-06T12:36:21.653Z,510.00
2023-01-06T12:37:21.626Z,510.00
2023-01-06T12:38:21.577Z,511.00
2023-01-06T12:39:21.672Z,503.00
2023-01-06T12:40:21.508Z,510.00
2023-01-06T12:41:21.462Z,509.00
2023-01-06T12:42:21.428Z,509.00
2023-01-06T12:43:21.387Z,514.00
2023-01-06T12:44:21.348Z,508.00
2023-01-06T12:45:21.300Z,512.00
2023-01-06T12:46:21.362Z,514.00
2023-01-06T12:47:21.256Z,515.00
2023-01-06T12:48:21.189Z,514.00
2023-01-06T12:49:21.149Z,514.00
2023-01-06T12:50:21.106Z,513.00
2023-01-06T12:51:21.066Z,517.00
2023-01-06T12:52:21.056Z,522.00
2023-01-06T12:53:21.417Z,514.00
2023-01-06T12:54:20.957Z,514.00
2023-01-06T12:55:21.033Z,518.00
2023-01-06T12:56:20.881Z,512.00
2023-01-06T12:57:20.849Z,507.00
2023-01-06T12:58:20.814Z,513.00
2023-01-06T12:59:20.768Z,521.00
2023-01-06T13:00:20.733Z,521.00
2023-01-06T13:01:20.898Z,515.00
2023-01-06T13:02:20.727Z,511.00
2023-01-06T13:03:20.661Z,514.00
2023-01-06T13:04:20.644Z,523.00
2023-01-06T13:05:20.554Z,527.00
2023-01-06T13:06:20.523Z,522.00
2023-01-06T13:07:20.494Z,519.00
2023-01-06T13:08:20.455Z,514.00
2023-01-06T13:09:20.431Z,513.00
2023-01-06T13:10:20.405Z,523.00
2023-01-06T13:11:20.497Z,518.00
2023-01-06T13:12:20.321Z,519.00
2023-01-06T13:13:20.300Z,520.00
2023-01-06T13:14:20.244Z,516.00
2023-01-06T13:15:20.213Z,516.00
2023-01-06T13:16:20.252Z,515.00
2023-01-06T13:17:20.143Z,521.00
2023-01-06T13:18:20.116Z,519.00
2023-01-06T13:19:20.082Z,515.00
2023-01-06T13:20:20.085Z,512.00
2023-01-06T13:21:20.006Z,512.00
2023-01-06T13:22:19.974Z,512.00
2023-01-06T13:23:19.982Z,514.00
2023-01-06T13:24:19.904Z,515.00
2023-01-06T13:25:19.874Z,517.00
2023-01-06T13:26:19.825Z,518.00
2023-01-06T13:27:19.950Z,514.00
2023-01-06T13:28:19.752Z,513.00
2023-01-06T13:29:19.717Z,514.00
2023-01-06T13:30:19.672Z,511.00
2023-01-06T13:31:19.633Z,505.00
2023-01-06T13:32:19.599Z,514.00
2023-01-06T13:33:19.601Z,516.00
2023-01-06T13:34:19.517Z,514.00
2023-01-06T13:35:19.516Z,516.00
2023-01-06T13:36:19.432Z,511.00
2023-01-06T13:37:19.405Z,516.00
2023-01-06T13:38:19.356Z,512.00
2023-01-06T13:39:19.320Z,520.00
2023-01-06T13:40:19.283Z,517.00
2023-01-06T13:41:19.256Z,516.00
2023-01-06T13:42:19.206Z,509.00
2023-01-06T13:43:19.298Z,513.00
2023-01-06T13:44:19.152Z,515.00
2023-01-06T13:45:19.099Z,513.00
2023-01-06T13:46:19.093Z,516.00
2023-01-06T13:47:19.028Z,511.00
2023-01-06T13:48:19.021Z,511.00
2023-01-06T13:49:18.955Z,514.00
2023-01-06T13:50:18.919Z,508.00
2023-01-06T13:51:18.879Z,507.00
2023-01-06T13:52:18.844Z,516.00
2023-01-06T13:53:18.854Z,507.00
2023-01-06T13:54:18.781Z,516.00
2023-01-06T13:55:18.743Z,513.00
2023-01-06T13:56:18.698Z,516.00
2023-01-06T13:57:18.670Z,507.00
2023-01-06T13:58:18.628Z,513.00
2023-01-06T13:59:18.713Z,516.00
2023-01-06T14:00:18.560Z,516.00
2023-01-06T14:01:18.713Z,513.00
2023-01-06T14:02:18.720Z,514.00
2023-01-06T14:03:18.465Z,514.00
2023-01-06T14:04:18.817Z,518.00
2023-01-06T14:05:18.386Z,519.00
2023-01-06T14:06:18.346Z,522.00
2023-01-06T14:07:18.311Z,523.00
2023-01-06T14:08:18.277Z,517.00
2023-01-06T14:09:18.270Z,513.00
2023-01-06T14:10:18.229Z,514.00
2023-01-06T14:11:18.178Z,520.00
2023-01-06T14:12:18.171Z,508.00
2023-01-06T14:13:18.156Z,521.00
2023-01-06T14:14:18.070Z,516.00
2023-01-06T14:15:18.191Z,518.00
2023-01-06T14:16:18.095Z,517.00
2023-01-06T14:17:17.961Z,518.00
2023-01-06T14:18:17.921Z,512.00
2023-01-06T14:19:17.899Z,512.00
2023-01-06T14:20:17.852Z,517.00
2023-01-06T14:21:17.813Z,511.00
2023-01-06T14:22:17.780Z,514.00
2023-01-06T14:23:17.743Z,513.00
2023-01-06T14:24:17.714Z,517.00
2023-01-06T14:25:17.676Z,515.00
2023-01-06T14:26:17.634Z,515.00
2023-01-06T14:27:17.596Z,510.00
2023-01-06T14:28:17.560Z,512.00
2023-01-06T14:29:17.573Z,515.00
2023-01-06T14:30:17.490Z,514.00
2023-01-06T14:31:17.627Z,511.00
2023-01-06T14:32:17.424Z,510.00
2023-01-06T14:33:17.383Z,514.00
2023-01-06T14:34:17.375Z,515.00
2023-01-06T14:35:17.340Z,514.00
2023-01-06T14:36:17.276Z,514.00
2023-01-06T14:37:17.235Z,506.00
2023-01-06T14:38:17.195Z,517.00
2023-01-06T14:39:17.193Z,513.00
2023-01-06T14:40:17.110Z,516.00
2023-01-06T14:41:17.077Z,514.00
2023-01-06T14:42:17.044Z,525.00
2023-01-06T14:43:17.016Z,516.00
2023-01-06T14:44:16.997Z,514.00
2023-01-06T14:45:17.896Z,514.00
2023-01-06T14:46:16.915Z,508.00
2023-01-06T14:47:16.983Z,521.00
2023-01-06T14:48:16.851Z,520.00
2023-01-06T14:49:16.796Z,516.00
2023-01-06T14:50:16.766Z,518.00
2023-01-06T14:51:16.729Z,513.00
2023-01-06T14:52:16.699Z,519.00
2023-01-06T14:53:16.666Z,516.00
2023-01-06T14:54:16.624Z,515.00
2023-01-06T14:55:16.596Z,519.00
2023-01-06T14:56:16.557Z,518.00
2023-01-06T14:57:16.525Z,515.00
2023-01-06T14:58:16.484Z,509.00
2023-01-06T14:59:16.446Z,513.00
2023-01-06T15:00:16.438Z,511.00
2023-01-06T15:01:16.488Z,522.00
2023-01-06T15:02:16.590Z,514.00
2023-01-06T15:03:16.453Z,518.00
2023-01-06T15:04:16.253Z,515.00
2023-01-06T15:05:16.209Z,511.00
2023-01-06T15:06:16.172Z,522.00
2023-01-06T15:07:16.131Z,520.00
2023-01-06T15:08:16.084Z,521.00
2023-01-06T15:09:16.041Z,516.00
2023-01-06T15:10:16.021Z,520.00
2023-01-06T15:11:15.962Z,522.00
2023-01-06T15:12:15.924Z,526.00
2023-01-06T15:13:15.876Z,516.00
2023-01-06T15:14:15.836Z,521.00
2023-01-06T15:15:15.803Z,518.00
2023-01-06T15:16:15.838Z,516.00
2023-01-06T15:17:15.715Z,516.00
2023-01-06T15:18:15.676Z,524.00
2023-01-06T15:19:15.767Z,515.00
2023-01-06T15:20:15.600Z,518.00
2023-01-06T15:21:15.561Z,518.00
2023-01-06T15:22:15.525Z,518.00
2023-01-06T15:23:15.483Z,516.00
2023-01-06T15:24:15.440Z,517.00
2023-01-06T15:25:15.479Z,519.00
2023-01-06T15:26:15.367Z,524.00
2023-01-06T15:27:15.337Z,523.00
2023-01-06T15:28:15.288Z,515.00
2023-01-06T15:29:15.268Z,524.00
2023-01-06T15:30:15.215Z,513.00
2023-01-06T15:31:15.212Z,516.00
2023-01-06T15:32:15.148Z,515.00
2023-01-06T15:33:15.109Z,516.00
2023-01-06T15:34:15.081Z,514.00
2023-01-06T15:35:15.160Z,523.00
2023-01-06T15:36:15.141Z,522.00
2023-01-06T15:37:14.963Z,515.00
2023-01-06T15:38:14.934Z,513.00
2023-01-06T15:39:14.889Z,513.00
2023-01-06T15:40:14.853Z,517.00
2023-01-06T15:41:14.825Z,516.00
2023-01-06T15:42:14.775Z,512.00
2023-01-06T16:02:14.941Z,519.00
2023-01-06T18:27:08.184Z,524.00
2023-01-06T18:28:08.133Z,528.00
2023-01-06T18:29:08.094Z,530.00
2023-01-06T18:30:08.053Z,523.00
2023-01-06T18:31:08.209Z,524.00
2023-01-06T18:32:07.970Z,526.00
2023-01-06T18:33:07.932Z,524.00
2023-01-06T18:34:07.893Z,526.00
2023-01-06T18:35:07.846Z,527.00
2023-01-06T18:36:07.816Z,528.00
2023-01-06T18:38:07.731Z,525.00
2023-01-06T18:39:07.689Z,522.00
2023-01-06T18:40:07.657Z,526.00
2023-01-06T18:41:07.612Z,522.00
2023-01-06T18:42:07.582Z,528.00
2023-01-06T18:43:07.530Z,527.00
2023-01-06T18:44:07.479Z,527.00
2023-01-06T18:45:07.444Z,529.00
2023-01-06T18:46:07.439Z,529.00
2023-01-06T18:47:07.475Z,524.00
2023-01-06T18:48:07.325Z,525.00
2023-01-06T18:49:07.288Z,522.00
2023-01-06T18:50:07.259Z,525.00
2023-01-06T18:51:07.202Z,530.00
2023-01-06T18:52:07.161Z,522.00
2023-01-06T18:53:07.117Z,518.00
2023-01-06T18:54:07.074Z,524.00
2023-01-06T18:55:07.034Z,524.00
2023-01-06T18:56:06.993Z,520.00
2023-01-06T18:57:06.956Z,520.00
2023-01-06T18:58:06.915Z,527.00
2023-01-06T18:59:06.871Z,530.00
2023-01-06T19:00:06.864Z,532.00
2023-01-06T19:01:06.908Z,526.00
2023-01-06T19:02:06.891Z,526.00
2023-01-06T19:03:06.832Z,532.00
2023-01-06T19:04:06.786Z,522.00
2023-01-06T19:05:06.640Z,523.00
2023-01-06T19:06:06.602Z,526.00
2023-01-06T19:07:06.554Z,531.00
2023-01-06T19:08:06.515Z,530.00
2023-01-06T19:09:06.475Z,528.00
2023-01-06T19:10:06.449Z,527.00
2023-01-06T19:11:06.409Z,533.00
2023-01-06T19:12:06.380Z,528.00
2023-01-06T19:13:06.344Z,523.00
2023-01-06T19:14:06.286Z,524.00
2023-01-06T19:15:06.248Z,528.00
2023-01-06T19:16:06.266Z,527.00
2023-01-06T19:17:06.168Z,530.00
2023-01-06T19:18:06.127Z,524.00
2023-01-06T19:19:06.213Z,523.00
2023-01-06T19:20:06.063Z,524.00
2023-01-06T19:21:06.015Z,521.00
2023-01-06T19:22:05.977Z,523.00
2023-01-06T19:23:05.939Z,517.00
2023-01-06T19:24:05.896Z,522.00
2023-01-06T19:25:05.854Z,526.00
2023-01-06T19:26:05.817Z,523.00
2023-01-06T19:27:05.770Z,526.00
2023-01-06T19:28:05.733Z,521.00
2023-01-06T19:29:05.696Z,531.00
2023-01-06T19:30:06.422Z,525.00
2023-01-06T19:31:05.616Z,522.00
2023-01-06T19:32:05.576Z,522.00
2023-01-06T19:33:05.537Z,525.00
2023-01-06T19:34:05.498Z,521.00
2023-01-06T19:35:05.573Z,515.00
2023-01-06T19:36:05.424Z,522.00
2023-01-06T19:37:05.371Z,512.00
2023-01-06T19:38:05.358Z,515.00
2023-01-06T19:39:05.299Z,523.00
2023-01-06T19:40:05.263Z,520.00
2023-01-06T19:41:05.271Z,523.00
2023-01-06T19:42:05.184Z,531.00
2023-01-06T19:43:05.144Z,524.00
2023-01-06T19:44:05.100Z,521.00
2023-01-06T19:45:05.070Z,522.00
2023-01-06T19:46:05.103Z,526.00
2023-01-06T19:47:04.986Z,525.00
2023-01-06T19:48:04.950Z,522.00
2023-01-06T19:49:04.903Z,522.00
2023-01-06T19:50:04.866Z,515.00
2023-01-06T19:51:04.993Z,516.00
2023-01-06T19:52:04.797Z,523.00
2023-01-06T19:53:04.757Z,513.00
2023-01-06T19:54:04.744Z,516.00
2023-01-06T19:55:04.688Z,520.00
2023-01-06T19:56:04.654Z,518.00
2023-01-06T19:57:04.616Z,522.00
2023-01-06T19:58:04.599Z,519.00
2023-01-06T19:59:04.544Z,513.00
2023-01-06T20:00:04.509Z,520.00
2023-01-06T20:01:04.532Z,526.00
2023-01-06T20:02:04.600Z,513.00
2023-01-06T20:03:04.591Z,523.00
2023-01-06T20:04:04.364Z,522.00
2023-01-06T20:05:04.331Z,536.00
2023-01-06T20:06:04.297Z,529.00
2023-01-06T20:07:04.374Z,521.00
2023-01-06T20:08:04.213Z,519.00
2023-01-06T20:09:04.183Z,523.00
2023-01-06T20:10:04.139Z,527.00
2023-01-06T20:11:04.108Z,526.00
2023-01-06T20:12:04.062Z,521.00
2023-01-06T20:13:04.043Z,521.00
2023-01-06T20:14:03.997Z,525.00
2023-01-06T20:15:06.540Z,519.00
2023-01-06T20:16:03.928Z,519.00
2023-01-06T20:17:03.914Z,521.00
2023-01-06T20:18:03.859Z,522.00